Time;durP1;ratioP1;P1;durP2;ratioP2;P2;SDS_P1;SDS_P2;PMS_P1;PMS_P2;Temp;Humidity;BMP_temperature;BMP_pressure;BME280_temperature;BME280_humidity;BME280_pressure;Samples;Min_cycle;Max_cycle;Signal;HPM_P1;HPM_P2
2021/12/15 00:01:12;;;;;;;131.88;86.05;;;2.80;99.90;;;;;;4992421;28;20030;-72
2021/12/15 00:03:39;;;;;;;131.70;86.30;;;2.80;99.90;;;;;;4992141;28;20034;-72
2021/12/15 00:06:12;;;;;;;133.10;89.47;;;2.90;99.90;;;;;;4992201;28;20034;-72
2021/12/15 00:08:39;;;;;;;146.10;98.97;;;2.80;99.90;;;;;;4992471;28;20029;-71
2021/12/15 00:11:05;;;;;;;133.68;87.97;;;2.80;99.90;;;;;;4991202;28;20030;-71
2021/12/15 00:13:32;;;;;;;130.32;88.60;;;2.70;99.90;;;;;;4992730;28;20365;-71
2021/12/15 00:15:58;;;;;;;130.02;82.82;;;2.70;99.90;;;;;;4990860;28;20046;-71
2021/12/15 00:18:24;;;;;;;126.40;84.15;;;2.70;99.90;;;;;;4985944;28;20034;-72
2021/12/15 00:20:51;;;;;;;134.40;85.85;;;2.70;99.90;;;;;;4982833;28;20042;-72
2021/12/15 00:23:16;;;;;;;119.53;77.80;;;2.50;99.90;;;;;;4994945;28;20030;-71
2021/12/15 00:25:43;;;;;;;121.38;81.70;;;2.50;99.90;;;;;;4991031;28;20034;-72
2021/12/15 00:28:10;;;;;;;137.95;85.32;;;2.40;99.90;;;;;;4992103;28;20018;-71
2021/12/15 00:30:38;;;;;;;150.38;93.15;;;2.30;99.90;;;;;;4990884;28;20450;-71
2021/12/15 00:33:06;;;;;;;146.55;93.45;;;2.40;99.90;;;;;;4991039;28;20018;-71
2021/12/15 00:35:32;;;;;;;152.18;101.18;;;2.40;99.90;;;;;;4991204;28;20133;-70
2021/12/15 00:37:59;;;;;;;157.98;101.55;;;2.30;99.90;;;;;;4995571;28;20400;-70
2021/12/15 00:40:26;;;;;;;160.60;103.93;;;2.30;99.90;;;;;;4994702;28;20038;-70
2021/12/15 00:42:53;;;;;;;189.10;122.55;;;2.40;99.90;;;;;;4995682;28;20484;-71
2021/12/15 00:45:19;;;;;;;175.52;113.32;;;2.30;99.90;;;;;;4991302;28;20022;-70
2021/12/15 00:47:46;;;;;;;185.73;112.55;;;2.30;99.90;;;;;;4994728;28;20081;-70
2021/12/15 00:50:15;;;;;;;214.60;114.15;;;2.30;99.90;;;;;;4992629;28;20034;-70
2021/12/15 00:52:43;;;;;;;214.70;112.07;;;2.20;99.90;;;;;;4995982;28;20424;-70
2021/12/15 00:55:14;;;;;;;198.80;102.05;;;2.10;99.90;;;;;;5007450;28;20414;-70
2021/12/15 00:57:40;;;;;;;219.40;101.13;;;2.10;99.90;;;;;;5010548;28;20034;-69
2021/12/15 01:00:12;;;;;;;247.02;111.95;;;2.10;99.90;;;;;;4994633;28;20092;-70
2021/12/15 01:02:38;;;;;;;180.57;96.20;;;2.00;99.90;;;;;;5009814;28;20054;-70
2021/12/15 01:05:06;;;;;;;256.23;112.43;;;2.00;99.90;;;;;;4992793;28;20080;-69
2021/12/15 01:07:32;;;;;;;209.73;104.47;;;2.00;99.90;;;;;;4990162;28;20053;-70
2021/12/15 01:09:59;;;;;;;176.88;98.15;;;2.10;99.90;;;;;;4995344;28;20026;-70
2021/12/15 01:20:50;;;;;;;199.30;98.15;;;2.30;99.90;;;;;;4994706;28;20046;-71
2021/12/15 01:23:21;;;;;;;172.40;89.72;;;2.30;99.90;;;;;;4993861;28;20054;-70
2021/12/15 01:25:52;;;;;;;163.73;92.80;;;2.30;99.90;;;;;;4993271;28;20531;-71
2021/12/15 01:28:20;;;;;;;195.48;99.70;;;2.40;99.90;;;;;;4990656;28;20029;-71
2021/12/15 01:30:47;;;;;;;146.43;86.20;;;2.40;99.90;;;;;;4993541;28;20032;-71
2021/12/15 01:33:14;;;;;;;147.20;82.38;;;2.40;99.90;;;;;;4992936;28;20538;-71
2021/12/15 01:35:44;;;;;;;158.38;81.10;;;2.40;99.90;;;;;;4989944;28;20048;-71
2021/12/15 01:38:10;;;;;;;184.65;96.18;;;2.40;99.90;;;;;;4992420;28;20057;-71
2021/12/15 01:40:41;;;;;;;179.30;91.50;;;2.30;99.90;;;;;;4990077;28;20033;-71
2021/12/15 01:43:16;;;;;;;199.43;98.10;;;2.30;99.90;;;;;;4993718;28;20022;-71
2021/12/15 01:48:33;;;;;;;216.95;109.38;;;2.30;99.90;;;;;;4992178;28;20030;-71
2021/12/15 01:50:59;;;;;;;184.57;92.18;;;2.10;99.90;;;;;;4990378;28;20117;-71
2021/12/15 01:53:26;;;;;;;150.88;85.57;;;2.10;99.90;;;;;;4993388;28;20605;-71
2021/12/15 01:55:53;;;;;;;163.68;88.45;;;2.20;99.90;;;;;;4992038;28;20042;-70
2021/12/15 01:58:19;;;;;;;211.57;103.32;;;2.20;99.90;;;;;;4991329;28;20042;-71
2021/12/15 02:00:55;;;;;;;222.55;110.50;;;2.20;99.90;;;;;;4992585;28;20038;-71
2021/12/15 02:03:21;;;;;;;183.32;97.40;;;2.30;99.90;;;;;;4991596;28;20444;-70
2021/12/15 02:05:47;;;;;;;190.88;97.40;;;2.30;99.90;;;;;;4985137;28;20042;-71
2021/12/15 02:08:14;;;;;;;201.82;99.95;;;2.30;99.90;;;;;;4990800;28;20057;-72
2021/12/15 02:10:42;;;;;;;233.40;105.07;;;2.30;99.90;;;;;;4994408;28;20641;-71
2021/12/15 02:13:12;;;;;;;168.95;94.85;;;2.30;99.90;;;;;;4993770;28;20169;-71
2021/12/15 02:15:42;;;;;;;181.88;93.45;;;2.20;99.90;;;;;;4992774;28;20200;-71
2021/12/15 02:18:12;;;;;;;168.82;90.47;;;2.30;99.90;;;;;;4994141;28;20041;-72
2021/12/15 02:20:42;;;;;;;137.65;79.90;;;2.30;99.90;;;;;;4992637;28;20482;-72
2021/12/15 02:23:12;;;;;;;148.50;87.85;;;2.30;99.90;;;;;;4976905;28;20015;-71
2021/12/15 02:25:39;;;;;;;152.63;88.07;;;2.40;99.90;;;;;;4978526;28;20042;-71
2021/12/15 02:28:07;;;;;;;136.60;80.68;;;2.40;99.90;;;;;;4993866;28;20448;-72
2021/12/15 02:33:38;;;;;;;150.00;83.40;;;2.50;99.90;;;;;;4975056;28;20050;-72
2021/12/15 02:38:43;;;;;;;149.50;87.40;;;2.50;99.90;;;;;;4973857;28;20425;-71
2021/12/15 02:41:20;;;;;;;180.68;91.47;;;2.60;99.90;;;;;;4972149;28;20039;-72
2021/12/15 02:43:56;;;;;;;125.45;75.30;;;2.60;99.90;;;;;;4973374;28;20050;-72
2021/12/15 02:46:23;;;;;;;143.32;84.50;;;2.60;99.90;;;;;;4979408;28;20493;-71
2021/12/15 02:48:49;;;;;;;139.25;79.43;;;2.40;99.90;;;;;;4980756;28;20023;-72
2021/12/15 02:51:17;;;;;;;130.80;76.90;;;2.50;99.90;;;;;;4983217;28;20034;-72
2021/12/15 02:53:43;;;;;;;143.93;82.30;;;2.40;99.90;;;;;;4989425;28;20476;-72
2021/12/15 02:56:09;;;;;;;160.45;89.97;;;2.30;99.90;;;;;;4987546;28;20023;-72
2021/12/15 02:58:38;;;;;;;154.27;86.15;;;2.30;99.90;;;;;;4973983;28;20049;-71
2021/12/15 03:01:18;;;;;;;124.65;77.90;;;2.30;99.90;;;;;;4981864;28;20030;-71
2021/12/15 03:04:08;;;;;;;117.50;72.43;;;2.30;99.90;;;;;;4993696;28;20026;-71
2021/12/15 03:06:40;;;;;;;119.03;76.18;;;2.30;99.90;;;;;;4991457;28;20038;-71
2021/12/15 03:09:40;;;;;;;117.55;74.90;;;2.20;99.90;;;;;;4993108;28;20034;-71
2021/12/15 03:17:08;;;;;;;134.50;82.13;;;2.10;99.90;;;;;;4991297;28;20046;-71
2021/12/15 03:19:34;;;;;;;119.65;75.88;;;2.10;99.90;;;;;;4993377;28;20034;-71
2021/12/15 03:22:00;;;;;;;133.93;80.07;;;2.10;99.90;;;;;;4992358;28;20420;-71
2021/12/15 03:24:27;;;;;;;127.32;80.15;;;2.10;99.90;;;;;;4993030;28;20105;-71
2021/12/15 03:27:06;;;;;;;121.25;79.88;;;2.00;99.90;;;;;;4990609;28;20073;-71
2021/12/15 03:37:43;;;;;;;121.40;77.05;;;2.10;99.90;;;;;;4992357;28;20463;-71
2021/12/15 03:40:11;;;;;;;120.18;77.32;;;2.10;99.90;;;;;;4991820;28;20042;-70
2021/12/15 03:42:44;;;;;;;121.05;76.55;;;2.10;99.90;;;;;;4973479;28;20378;-73
2021/12/15 03:45:14;;;;;;;109.57;72.37;;;2.20;99.90;;;;;;4973310;28;20031;-71
2021/12/15 03:47:44;;;;;;;112.57;74.15;;;2.20;99.90;;;;;;4976643;28;20266;-72
2021/12/15 03:50:17;;;;;;;115.82;77.20;;;2.20;99.90;;;;;;4991417;28;20424;-72
2021/12/15 03:52:48;;;;;;;;;;;2.10;99.90;;;;;;4992925;28;20118;-73
2021/12/15 03:55:14;;;;;;;123.35;74.57;;;2.00;99.90;;;;;;4991750;28;19910;-73
2021/12/15 03:57:40;;;;;;;117.78;75.85;;;2.10;99.90;;;;;;4991252;28;20030;-73
2021/12/15 04:00:09;;;;;;;120.50;71.72;;;2.00;99.90;;;;;;4991009;28;20041;-72
2021/12/15 04:02:38;;;;;;;108.85;69.05;;;2.10;99.90;;;;;;4979434;28;20086;-72
2021/12/15 04:05:07;;;;;;;109.78;69.88;;;2.20;99.90;;;;;;4973308;28;20026;-72
2021/12/15 04:07:35;;;;;;;110.22;67.32;;;2.20;99.90;;;;;;4984049;28;20050;-72
2021/12/15 04:10:04;;;;;;;105.35;71.18;;;2.30;99.90;;;;;;4992753;28;20022;-72
2021/12/15 04:12:30;;;;;;;112.20;67.07;;;2.30;99.90;;;;;;4987609;28;20433;-72
2021/12/15 04:15:07;;;;;;;108.10;73.80;;;2.40;99.90;;;;;;4976755;28;20077;-72
2021/12/15 04:17:36;;;;;;;123.70;79.38;;;2.30;99.90;;;;;;4991883;28;20038;-72
2021/12/15 04:20:10;;;;;;;127.28;82.65;;;2.30;99.90;;;;;;4979988;28;20055;-72
2021/12/15 04:22:37;;;;;;;124.15;76.75;;;2.10;99.90;;;;;;4976981;28;20027;-72
2021/12/15 04:25:09;;;;;;;118.50;74.63;;;2.10;99.90;;;;;;4977006;28;20531;-73
2021/12/15 04:27:35;;;;;;;106.13;69.28;;;2.00;99.90;;;;;;4989389;28;20026;-72
2021/12/15 04:30:07;;;;;;;119.10;74.93;;;2.00;99.90;;;;;;4977782;28;20057;-72
2021/12/15 04:32:45;;;;;;;114.72;73.05;;;2.00;99.90;;;;;;4976892;28;20478;-72
2021/12/15 04:35:12;;;;;;;107.30;71.15;;;2.00;99.90;;;;;;4976929;28;20056;-72
2021/12/15 04:37:38;;;;;;;110.93;70.55;;;2.00;99.90;;;;;;4985060;28;20023;-72
2021/12/15 04:40:07;;;;;;;108.82;68.10;;;2.00;99.90;;;;;;4994061;28;20074;-72
2021/12/15 04:42:33;;;;;;;112.93;70.88;;;1.90;99.90;;;;;;4976794;28;20085;-72
2021/12/15 04:44:59;;;;;;;109.90;70.00;;;1.90;99.90;;;;;;4976659;28;20035;-71
2021/12/15 04:47:26;;;;;;;104.60;68.65;;;1.90;99.90;;;;;;4984863;28;20031;-71
2021/12/15 04:49:56;;;;;;;107.53;70.95;;;1.90;99.90;;;;;;4976714;28;20030;-72
2021/12/15 04:52:25;;;;;;;113.10;70.88;;;1.90;99.90;;;;;;4995819;28;20030;-72
2021/12/15 04:54:51;;;;;;;94.30;62.65;;;1.80;99.90;;;;;;4995268;28;20061;-72
2021/12/15 04:57:19;;;;;;;100.70;63.80;;;1.90;99.90;;;;;;4988620;28;20381;-71
2021/12/15 04:59:46;;;;;;;103.15;68.90;;;1.80;99.90;;;;;;4976247;28;20474;-71
2021/12/15 05:02:13;;;;;;;103.03;66.45;;;1.80;99.90;;;;;;4993612;28;20073;-72
2021/12/15 05:08:35;;;;;;;98.93;62.53;;;1.80;99.90;;;;;;5178470;23;20061;-72
2021/12/15 05:11:01;;;;;;;92.50;59.65;;;1.80;99.90;;;;;;4987843;28;20372;-74
2021/12/15 05:13:27;;;;;;;101.32;63.40;;;1.90;99.90;;;;;;4982566;28;20031;-72
2021/12/15 05:15:54;;;;;;;99.95;57.13;;;1.80;99.90;;;;;;4989607;28;20594;-72
2021/12/15 05:18:21;;;;;;;100.00;61.95;;;1.70;99.90;;;;;;4990618;28;20034;-72
2021/12/15 05:20:50;;;;;;;97.72;62.15;;;1.70;99.90;;;;;;4987844;28;20034;-71
2021/12/15 05:23:17;;;;;;;98.97;58.38;;;1.70;99.90;;;;;;4994859;28;20060;-72
2021/12/15 05:25:45;;;;;;;95.70;56.20;;;1.70;99.90;;;;;;4994631;28;20044;-72
2021/12/15 05:28:12;;;;;;;87.53;55.63;;;1.70;99.90;;;;;;4993862;28;20023;-72
2021/12/15 05:30:39;;;;;;;86.13;54.05;;;1.70;99.90;;;;;;4993724;28;20494;-72
2021/12/15 05:33:05;;;;;;;87.85;51.42;;;1.70;99.90;;;;;;4994464;28;20077;-73
2021/12/15 05:35:33;;;;;;;82.65;48.40;;;1.70;99.90;;;;;;5009811;28;20104;-73
2021/12/15 05:38:00;;;;;;;77.05;49.15;;;1.70;99.90;;;;;;4993993;28;20022;-73
2021/12/15 05:40:28;;;;;;;73.05;49.22;;;1.80;99.90;;;;;;4995252;28;20042;-73
2021/12/15 05:42:56;;;;;;;83.93;51.70;;;1.70;99.90;;;;;;4994290;28;20105;-72
2021/12/15 05:45:33;;;;;;;82.85;49.33;;;1.70;99.90;;;;;;4994357;28;20030;-73
2021/12/15 05:48:00;;;;;;;82.43;53.83;;;1.80;99.90;;;;;;4994111;28;20069;-72
2021/12/15 05:50:29;;;;;;;87.55;53.53;;;1.80;99.90;;;;;;4994614;28;20050;-72
2021/12/15 05:52:57;;;;;;;82.10;52.85;;;1.80;99.90;;;;;;4994260;28;20484;-73
2021/12/15 05:55:24;;;;;;;89.70;55.42;;;1.80;99.90;;;;;;4993813;28;20446;-73
2021/12/15 05:57:50;;;;;;;88.55;55.08;;;1.80;99.90;;;;;;4994320;28;20030;-73
2021/12/15 06:00:19;;;;;;;85.75;55.25;;;1.80;99.90;;;;;;4993534;28;20035;-73
2021/12/15 06:02:46;;;;;;;86.03;56.50;;;1.80;99.90;;;;;;4992600;28;20040;-72
2021/12/15 06:05:13;;;;;;;97.28;56.08;;;1.80;99.90;;;;;;4989431;28;20113;-73
2021/12/15 06:07:40;;;;;;;93.10;53.47;;;1.80;99.90;;;;;;4993623;28;20042;-73
2021/12/15 06:10:08;;;;;;;93.55;55.70;;;1.90;99.90;;;;;;4978002;28;20460;-73
2021/12/15 06:12:34;;;;;;;100.85;60.45;;;1.80;99.90;;;;;;4974810;28;20037;-72
2021/12/15 06:15:02;;;;;;;95.53;58.30;;;1.90;99.90;;;;;;4989350;28;20042;-73
2021/12/15 06:17:28;;;;;;;100.78;63.15;;;1.90;99.90;;;;;;4989474;28;20504;-73
2021/12/15 06:19:54;;;;;;;94.65;57.53;;;1.90;99.90;;;;;;4994467;28;20078;-73
2021/12/15 06:22:25;;;;;;;93.50;58.17;;;2.00;99.90;;;;;;4993319;28;20030;-73
2021/12/15 06:24:56;;;;;;;95.15;55.08;;;1.90;99.90;;;;;;4978360;28;20039;-72
2021/12/15 06:27:24;;;;;;;92.35;56.95;;;1.80;99.90;;;;;;4974811;28;20034;-72
2021/12/15 06:29:52;;;;;;;92.10;55.60;;;1.80;99.90;;;;;;4975523;28;20053;-72
2021/12/15 06:32:20;;;;;;;93.22;56.03;;;1.90;99.90;;;;;;4980211;28;20503;-73
2021/12/15 06:34:47;;;;;;;92.40;57.17;;;1.80;99.90;;;;;;4974589;28;20035;-72
2021/12/15 06:37:13;;;;;;;82.80;46.70;;;1.80;99.90;;;;;;4974568;28;20043;-73
2021/12/15 06:39:39;;;;;;;85.32;47.08;;;1.80;99.90;;;;;;4981694;28;20080;-73
2021/12/15 06:42:06;;;;;;;72.38;41.67;;;1.70;99.90;;;;;;4989113;28;20419;-72
2021/12/15 06:44:33;;;;;;;68.43;38.40;;;1.70;99.90;;;;;;4992188;28;20031;-72
2021/12/15 07:00:35;;;;;;;79.65;38.20;;;1.60;99.90;;;;;;4981869;28;20035;-72
2021/12/15 07:03:02;;;;;;;77.32;36.03;;;1.50;99.90;;;;;;4978484;28;20027;-73
2021/12/15 07:05:30;;;;;;;73.03;38.22;;;1.50;99.90;;;;;;4992363;28;20391;-73
2021/12/15 07:07:58;;;;;;;88.95;36.38;;;1.60;99.90;;;;;;4992667;28;20050;-73
2021/12/15 07:10:28;;;;;;;87.55;39.65;;;1.60;99.90;;;;;;4993195;28;20042;-72
2021/12/15 07:12:55;;;;;;;84.82;40.63;;;1.60;99.90;;;;;;4992487;28;20476;-73
2021/12/15 07:15:22;;;;;;;78.85;39.78;;;1.60;99.90;;;;;;4992961;28;20065;-73
2021/12/15 07:17:51;;;;;;;69.95;35.20;;;1.60;99.90;;;;;;4992613;28;20092;-72
2021/12/15 07:22:55;;;;;;;121.20;47.85;;;1.50;99.90;;;;;;4992674;28;20026;-72
2021/12/15 07:25:21;;;;;;;74.63;30.90;;;1.40;99.90;;;;;;4992601;28;20030;-72
2021/12/15 07:27:48;;;;;;;68.78;32.03;;;1.40;99.90;;;;;;4992531;28;20022;-73
2021/12/15 07:30:14;;;;;;;105.53;35.70;;;1.50;99.90;;;;;;4982155;28;20117;-72
2021/12/15 07:32:41;;;;;;;105.85;46.88;;;1.40;99.90;;;;;;4973114;28;20528;-72
2021/12/15 07:35:09;;;;;;;113.57;41.92;;;1.50;99.90;;;;;;4974142;28;20481;-72
2021/12/15 07:37:35;;;;;;;90.93;35.22;;;1.50;99.90;;;;;;4990316;28;20027;-72
2021/12/15 07:40:05;;;;;;;108.18;50.60;;;1.50;99.90;;;;;;4992094;28;20097;-71
2021/12/15 07:42:41;;;;;;;96.13;40.92;;;1.50;99.90;;;;;;4981780;28;20022;-72
2021/12/15 07:45:08;;;;;;;92.30;31.48;;;1.60;99.90;;;;;;4992298;28;20023;-72
2021/12/15 07:47:34;;;;;;;87.82;39.40;;;1.60;99.90;;;;;;4991407;28;20034;-72
2021/12/15 07:50:02;;;;;;;85.43;35.78;;;1.50;99.90;;;;;;4992349;28;20087;-72
2021/12/15 07:52:28;;;;;;;71.38;34.42;;;1.50;99.90;;;;;;4992527;28;20038;-72
2021/12/15 07:54:54;;;;;;;58.63;26.80;;;1.60;99.90;;;;;;4992202;28;20113;-72
2021/12/15 07:57:22;;;;;;;80.68;31.73;;;1.60;99.90;;;;;;4991070;28;20030;-72
2021/12/15 07:59:49;;;;;;;70.70;30.95;;;1.70;99.90;;;;;;4991526;28;20034;-72
2021/12/15 08:02:16;;;;;;;73.78;30.70;;;1.70;99.90;;;;;;4991019;28;20085;-72
2021/12/15 08:04:43;;;;;;;101.82;34.33;;;1.70;99.90;;;;;;4992045;28;20034;-72
2021/12/15 08:07:08;;;;;;;84.75;33.05;;;1.60;99.90;;;;;;4991205;28;20546;-72
2021/12/15 08:09:36;;;;;;;79.25;38.60;;;1.70;99.90;;;;;;4991022;28;20129;-71
2021/12/15 08:12:02;;;;;;;91.75;39.40;;;1.80;99.90;;;;;;4991123;28;20115;-73
2021/12/15 08:14:28;;;;;;;64.68;29.92;;;1.80;99.90;;;;;;4991237;28;20041;-72
2021/12/15 08:16:54;;;;;;;76.05;32.47;;;1.80;99.90;;;;;;4991079;28;20117;-72
2021/12/15 08:19:20;;;;;;;98.38;39.08;;;1.80;99.90;;;;;;4991377;28;20121;-73
2021/12/15 08:21:46;;;;;;;91.00;40.67;;;1.90;99.90;;;;;;4990903;28;20037;-73
2021/12/15 08:24:12;;;;;;;98.50;40.03;;;2.00;99.90;;;;;;4992002;28;20029;-71
2021/12/15 08:26:38;;;;;;;99.47;39.05;;;1.90;99.90;;;;;;4992189;28;20030;-71
2021/12/15 08:29:04;;;;;;;102.88;35.28;;;2.00;99.90;;;;;;4991670;28;20129;-71
2021/12/15 08:31:30;;;;;;;89.40;35.72;;;1.80;99.90;;;;;;4989908;28;20058;-72
2021/12/15 08:33:56;;;;;;;109.57;43.45;;;1.80;99.90;;;;;;4973633;28;20504;-72
2021/12/15 08:36:22;;;;;;;100.82;36.92;;;1.90;99.90;;;;;;4973778;28;20027;-72
2021/12/15 08:38:51;;;;;;;88.88;35.60;;;1.90;99.90;;;;;;4979047;28;20026;-73
2021/12/15 08:41:21;;;;;;;75.07;31.17;;;1.90;99.90;;;;;;4979833;28;20093;-72
2021/12/15 08:43:47;;;;;;;67.15;32.30;;;1.80;99.90;;;;;;4977225;28;20081;-72
2021/12/15 08:46:25;;;;;;;76.50;34.67;;;1.80;99.90;;;;;;4992027;28;20452;-72
2021/12/15 08:48:53;;;;;;;78.25;32.03;;;1.90;99.90;;;;;;4990930;28;20080;-72
2021/12/15 08:51:25;;;;;;;68.65;32.22;;;1.80;99.90;;;;;;4977969;28;20065;-73
2021/12/15 08:53:53;;;;;;;77.95;34.03;;;1.90;99.90;;;;;;4991363;28;20421;-72
2021/12/15 08:56:20;;;;;;;60.97;29.98;;;1.90;99.90;;;;;;4992222;28;20080;-73
2021/12/15 08:58:45;;;;;;;65.03;30.23;;;1.90;99.90;;;;;;4994361;28;20049;-71
2021/12/15 09:01:12;;;;;;;73.75;31.67;;;2.00;99.90;;;;;;4994597;28;20480;-73
2021/12/15 09:03:41;;;;;;;83.43;34.05;;;1.90;99.90;;;;;;4994630;28;20018;-72
2021/12/15 09:06:07;;;;;;;80.78;31.38;;;1.90;99.90;;;;;;4994890;28;20694;-73
2021/12/15 09:08:33;;;;;;;69.18;34.90;;;2.00;99.90;;;;;;4994556;28;20050;-73
2021/12/15 09:11:03;;;;;;;64.20;36.03;;;2.20;99.90;;;;;;4994776;28;20101;-72
2021/12/15 09:13:31;;;;;;;68.35;34.95;;;2.30;99.90;;;;;;4992217;28;20034;-73
2021/12/15 09:16:03;;;;;;;65.47;31.70;;;2.40;99.90;;;;;;4994682;28;20617;-72
2021/12/15 09:18:29;;;;;;;66.70;32.72;;;2.30;99.90;;;;;;4978913;28;20078;-73
2021/12/15 09:20:55;;;;;;;70.13;32.95;;;2.30;99.90;;;;;;4989679;28;20035;-72
2021/12/15 09:23:21;;;;;;;78.10;40.95;;;2.20;99.90;;;;;;4995287;28;20030;-72
2021/12/15 09:25:48;;;;;;;80.00;38.95;;;2.10;99.90;;;;;;4993911;28;20039;-72
2021/12/15 09:28:14;;;;;;;76.53;35.08;;;2.10;99.90;;;;;;4980419;28;20031;-73
2021/12/15 09:30:44;;;;;;;80.55;38.72;;;2.10;99.90;;;;;;4976737;28;20034;-73
2021/12/15 09:33:11;;;;;;;68.80;33.47;;;2.00;99.90;;;;;;4984467;28;20125;-73
2021/12/15 09:35:37;;;;;;;86.47;41.30;;;2.00;99.90;;;;;;4994111;28;20107;-73
2021/12/15 09:38:03;;;;;;;72.97;35.85;;;2.00;99.90;;;;;;4986055;28;20033;-72
2021/12/15 09:40:29;;;;;;;64.45;35.70;;;2.00;99.90;;;;;;4992588;28;20034;-73
2021/12/15 09:42:56;;;;;;;54.95;23.77;;;1.90;99.90;;;;;;4993660;28;20488;-73
2021/12/15 09:45:37;;;;;;;50.33;27.90;;;1.90;99.90;;;;;;4992637;28;20069;-72
2021/12/15 09:57:00;;;;;;;62.72;28.75;;;2.10;99.90;;;;;;4994389;28;20038;-72
2021/12/15 10:19:09;;;;;;;60.55;29.85;;;2.10;99.90;;;;;;4914287;29;20063;-73
2021/12/15 10:21:35;;;;;;;60.42;28.50;;;2.10;99.90;;;;;;4896308;29;20597;-73
2021/12/15 10:24:04;;;;;;;58.25;31.58;;;2.10;99.90;;;;;;4899556;29;20384;-73
2021/12/15 10:26:30;;;;;;;51.78;28.00;;;2.20;99.90;;;;;;4895767;29;20063;-74
2021/12/15 10:28:56;;;;;;;51.85;26.83;;;2.30;99.90;;;;;;4896846;29;20048;-73
2021/12/15 10:31:27;;;;;;;52.10;26.30;;;2.40;99.90;;;;;;4896111;29;20109;-74
2021/12/15 10:33:57;;;;;;;54.65;23.10;;;2.50;99.90;;;;;;4895975;29;20040;-73
2021/12/15 10:36:28;;;;;;;43.25;21.75;;;2.50;99.90;;;;;;4895365;29;20428;-73
2021/12/15 10:39:05;;;;;;;43.85;25.42;;;2.50;99.90;;;;;;4896216;29;20071;-73
2021/12/15 10:41:40;;;;;;;48.90;24.45;;;2.70;99.90;;;;;;4909262;29;20052;-73
2021/12/15 10:44:26;;;;;;;54.65;26.08;;;2.80;99.90;;;;;;4933157;29;20027;-73
2021/12/15 10:46:56;;;;;;;39.17;21.10;;;2.80;99.90;;;;;;4936123;29;20027;-74
2021/12/15 10:49:29;;;;;;;38.88;21.48;;;2.80;99.90;;;;;;4949352;29;20043;-73
2021/12/15 10:51:59;;;;;;;47.72;25.08;;;2.90;99.90;;;;;;4936765;29;20035;-74
2021/12/15 10:54:49;;;;;;;40.38;22.27;;;3.00;99.90;;;;;;4962253;28;20113;-73
2021/12/15 10:57:30;;;;;;;46.78;25.92;;;2.90;99.90;;;;;;4992844;28;20495;-73
2021/12/15 10:59:57;;;;;;;46.38;26.85;;;3.00;99.90;;;;;;4993585;28;20038;-73
2021/12/15 11:02:27;;;;;;;57.28;27.77;;;3.10;99.90;;;;;;4992628;28;20109;-72
2021/12/15 11:04:55;;;;;;;44.55;25.17;;;3.20;99.90;;;;;;4991372;28;20085;-73
2021/12/15 11:07:25;;;;;;;53.58;24.40;;;3.40;99.90;;;;;;4992092;28;20034;-72
2021/12/15 11:10:12;;;;;;;38.38;21.33;;;3.30;99.90;;;;;;4992753;28;20034;-73
2021/12/15 11:12:47;;;;;;;42.00;22.15;;;3.20;99.90;;;;;;4992253;28;20041;-73
2021/12/15 11:15:22;;;;;;;41.28;20.73;;;3.20;99.90;;;;;;4994140;28;20022;-73
2021/12/15 11:18:05;;;;;;;44.17;21.45;;;3.00;99.90;;;;;;4991120;28;20034;-73
2021/12/15 11:20:32;;;;;;;;;;;3.00;99.90;;;;;;4991601;28;20121;-73
2021/12/15 11:23:03;;;;;;;44.65;21.75;;;2.90;99.90;;;;;;4991430;28;19912;-73
2021/12/15 11:25:40;;;;;;;51.72;25.15;;;2.90;99.90;;;;;;4990559;28;20034;-73
2021/12/15 11:28:34;;;;;;;54.85;29.88;;;2.70;99.90;;;;;;4990044;28;20022;-72
2021/12/15 11:31:11;;;;;;;55.28;28.27;;;2.80;99.90;;;;;;4988992;28;20046;-72
2021/12/15 11:33:39;;;;;;;60.75;31.17;;;2.80;99.90;;;;;;4989974;28;20058;-73
2021/12/15 11:36:15;;;;;;;42.47;25.58;;;2.80;99.90;;;;;;4992346;28;20062;-73
2021/12/15 11:38:47;;;;;;;42.90;23.13;;;2.90;99.90;;;;;;4991013;28;20026;-73
2021/12/15 11:41:16;;;;;;;50.03;25.92;;;2.90;99.90;;;;;;4991447;28;20053;-71
2021/12/15 11:43:44;;;;;;;47.88;27.30;;;3.10;99.90;;;;;;4986800;28;20023;-72
2021/12/15 11:46:20;;;;;;;48.15;26.70;;;3.30;99.90;;;;;;4989635;28;20026;-71
2021/12/15 11:48:52;;;;;;;43.97;24.90;;;3.50;99.90;;;;;;4993250;28;20495;-71
2021/12/15 11:51:42;;;;;;;43.10;22.77;;;3.10;99.90;;;;;;4992985;28;20022;-72
2021/12/15 11:54:20;;;;;;;49.08;26.75;;;3.20;99.90;;;;;;4992433;28;20029;-72
2021/12/15 11:56:49;;;;;;;43.40;23.17;;;3.30;99.90;;;;;;4992464;28;20046;-71
2021/12/15 11:59:18;;;;;;;48.85;25.75;;;3.20;99.90;;;;;;4992410;28;20022;-71
2021/12/15 12:01:49;;;;;;;66.85;36.63;;;3.00;99.90;;;;;;4981387;28;20089;-72
2021/12/15 12:04:29;;;;;;;67.15;37.90;;;3.10;99.90;;;;;;4989289;28;20030;-72
2021/12/15 12:07:11;;;;;;;62.35;36.03;;;3.10;99.90;;;;;;4988892;28;20509;-71
2021/12/15 12:09:40;;;;;;;65.30;32.88;;;3.10;99.90;;;;;;4990938;28;20039;-72
2021/12/15 12:12:06;;;;;;;58.85;29.85;;;3.20;99.90;;;;;;4991613;28;20037;-72
2021/12/15 12:14:51;;;;;;;58.55;29.58;;;3.00;99.90;;;;;;4990226;28;20026;-72
2021/12/15 12:17:38;;;;;;;67.65;31.50;;;3.10;99.90;;;;;;4989378;28;20026;-72
2021/12/15 12:20:07;;;;;;;60.70;28.63;;;2.90;99.90;;;;;;4991268;28;20129;-70
2021/12/15 12:22:35;;;;;;;53.08;27.90;;;3.00;99.90;;;;;;4991519;28;20465;-70
2021/12/15 12:25:09;;;;;;;61.05;31.88;;;2.90;99.90;;;;;;4991333;28;20031;-70
2021/12/15 12:27:36;;;;;;;71.70;34.67;;;2.90;99.90;;;;;;4991523;28;20034;-70
2021/12/15 12:30:08;;;;;;;65.13;33.60;;;2.90;99.90;;;;;;4992618;28;20038;-72
2021/12/15 12:32:34;;;;;;;71.45;34.30;;;3.00;99.90;;;;;;4993405;28;20030;-71
2021/12/15 12:35:03;;;;;;;66.72;36.42;;;3.00;99.90;;;;;;4994304;28;20041;-72
2021/12/15 12:37:29;;;;;;;72.68;37.47;;;3.00;99.90;;;;;;4994504;28;20038;-72
2021/12/15 12:39:58;;;;;;;75.43;39.20;;;3.00;99.90;;;;;;4995516;28;20546;-73
2021/12/15 12:42:39;;;;;;;66.05;36.85;;;3.10;99.90;;;;;;4995259;28;20035;-73
2021/12/15 12:45:31;;;;;;;68.50;34.90;;;3.00;99.90;;;;;;4993909;28;20031;-72
2021/12/15 12:48:51;;;;;;;74.50;40.40;;;3.00;99.90;;;;;;4991299;28;20030;-72
2021/12/15 12:59:45;;;;;;;63.35;34.92;;;3.00;99.90;;;;;;4994226;28;20057;-73
2021/12/15 13:05:41;;;;;;;57.85;34.97;;;3.00;99.90;;;;;;4953244;29;20054;-73
2021/12/15 13:08:15;;;;;;;59.13;35.67;;;3.00;99.90;;;;;;4952603;29;20126;-73
2021/12/15 13:10:55;;;;;;;69.70;37.03;;;3.10;99.90;;;;;;4953744;29;20027;-73
2021/12/15 13:13:52;;;;;;;62.67;35.70;;;3.00;99.90;;;;;;4952358;29;20082;-72
2021/12/15 13:16:39;;;;;;;68.40;38.60;;;3.10;99.90;;;;;;4951424;29;20047;-72
2021/12/15 13:19:10;;;;;;;64.75;36.03;;;3.10;99.90;;;;;;4952488;29;20034;-73
2021/12/15 13:21:55;;;;;;;66.25;39.75;;;3.10;99.90;;;;;;4951847;29;20055;-73
2021/12/15 13:28:42;;;;;;;64.88;36.45;;;3.10;99.90;;;;;;4952532;29;20039;-73
2021/12/15 13:30:28;;;;;;;59.35;35.13;;;3.10;99.90;;;;;;4948624;29;20059;-73
2021/12/15 13:33:02;;;;;;;63.17;37.35;;;3.00;99.90;;;;;;4952450;29;20042;-73
2021/12/15 13:35:34;;;;;;;71.75;40.50;;;3.00;99.90;;;;;;4952528;29;20078;-73
2021/12/15 13:38:02;;;;;;;68.97;42.03;;;3.10;99.90;;;;;;4952574;29;20034;-72
2021/12/15 13:40:53;;;;;;;71.13;46.13;;;3.10;99.90;;;;;;4953336;28;20081;-72
2021/12/15 13:43:54;;;;;;;74.95;44.80;;;3.00;99.90;;;;;;4972091;28;20544;-73
2021/12/15 13:46:32;;;;;;;69.95;48.20;;;3.10;99.90;;;;;;4953291;29;20039;-73
2021/12/15 13:49:00;;;;;;;89.40;53.88;;;3.00;99.90;;;;;;4952544;28;20044;-73
2021/12/15 13:51:53;;;;;;;88.80;53.35;;;3.00;99.90;;;;;;4952744;28;20557;-73
2021/12/15 13:54:33;;;;;;;88.05;53.80;;;2.90;99.90;;;;;;4980926;28;20026;-73
2021/12/15 13:57:24;;;;;;;78.95;48.95;;;2.90;99.90;;;;;;4990066;28;20504;-73
2021/12/15 14:00:26;;;;;;;82.32;45.78;;;3.00;99.90;;;;;;4992523;28;20042;-73
2021/12/15 14:03:00;;;;;;;69.32;44.17;;;3.00;99.90;;;;;;4973018;28;20496;-73
2021/12/15 14:05:48;;;;;;;78.20;48.20;;;3.20;99.90;;;;;;4991366;28;20538;-73
2021/12/15 14:08:36;;;;;;;74.60;46.75;;;3.20;99.90;;;;;;4978014;28;20057;-73
2021/12/15 14:11:07;;;;;;;76.82;50.67;;;3.20;99.90;;;;;;4991703;28;20058;-73
2021/12/15 14:13:43;;;;;;;93.68;57.90;;;3.30;99.90;;;;;;4991650;28;20044;-73
2021/12/15 14:16:09;;;;;;;153.25;87.85;;;3.30;99.90;;;;;;4974912;28;20035;-73
2021/12/15 14:18:36;;;;;;;163.80;91.80;;;3.30;99.90;;;;;;4991647;28;20030;-72
2021/12/15 14:21:08;;;;;;;113.38;66.55;;;3.40;99.90;;;;;;4992005;28;20051;-73
2021/12/15 14:23:41;;;;;;;110.15;64.78;;;3.50;99.90;;;;;;4992974;28;20092;-72